Time;durP1;ratioP1;P1;durP2;ratioP2;P2;SDS_P1;SDS_P2;PMS_P1;PMS_P2;Temp;Humidity;BMP_temperature;BMP_pressure;BME280_temperature;BME280_humidity;BME280_pressure;Samples;Min_cycle;Max_cycle;Signal;HPM_P1;HPM_P2
2023/09/29 00:01:46;;;;;;;3.70;3.40;;;;;;;;;;5061547;28;20552;-81
2023/09/29 00:04:12;;;;;;;4.00;3.60;;;;;;;;;;5054617;28;20417;-81
2023/09/29 00:06:38;;;;;;;6.47;3.87;;;;;;;;;;5054421;28;20445;-81
2023/09/29 00:09:08;;;;;;;4.00;3.60;;;;;;;;;;5055281;28;20426;-81
2023/09/29 00:11:34;;;;;;;5.20;3.73;;;;;;;;;;5054506;28;20389;-81
2023/09/29 00:14:00;;;;;;;3.50;3.20;;;;;;;;;;5054893;28;20874;-81
2023/09/29 00:16:26;;;;;;;3.80;3.22;;;;;;;;;;5036890;28;20428;-81
2023/09/29 00:18:52;;;;;;;4.65;3.90;;;;;;;;;;5057331;28;20400;-81
2023/09/29 00:21:18;;;;;;;3.72;3.33;;;;;;;;;;5054735;28;20382;-81
2023/09/29 00:23:44;;;;;;;4.53;3.70;;;;;;;;;;5054855;28;20405;-81
2023/09/29 00:26:10;;;;;;;4.80;3.80;;;;;;;;;;5053449;28;20643;-81
2023/09/29 00:28:36;;;;;;;5.25;3.80;;;;;;;;;;5055248;28;20393;-80
2023/09/29 00:31:04;;;;;;;3.92;3.40;;;;;;;;;;5054182;28;20397;-81
2023/09/29 00:33:30;;;;;;;4.70;4.00;;;;;;;;;;5054160;28;20436;-80
2023/09/29 00:35:59;;;;;;;5.60;3.85;;;;;;;;;;5054001;28;20443;-80
2023/09/29 00:38:26;;;;;;;4.00;3.60;;;;;;;;;;5054803;28;20390;-80
2023/09/29 00:40:52;;;;;;;3.50;3.20;;;;;;;;;;5054488;28;21073;-81
2023/09/29 00:43:18;;;;;;;3.55;3.25;;;;;;;;;;5054595;28;20389;-81
2023/09/29 00:45:44;;;;;;;3.70;3.40;;;;;;;;;;5055130;28;20468;-81
2023/09/29 00:48:10;;;;;;;4.00;3.45;;;;;;;;;;5053391;28;20397;-81
2023/09/29 00:50:39;;;;;;;3.85;3.47;;;;;;;;;;5051704;28;20391;-81
2023/09/29 00:53:07;;;;;;;5.03;3.50;;;;;;;;;;5051459;28;20439;-80
2023/09/29 00:55:35;;;;;;;4.28;3.78;;;;;;;;;;5051545;28;20385;-80
2023/09/29 00:58:02;;;;;;;4.65;3.20;;;;;;;;;;5050989;28;20881;-80
2023/09/29 01:00:32;;;;;;;4.45;3.63;;;;;;;;;;5050851;28;20386;-80
2023/09/29 01:03:11;;;;;;;3.55;3.25;;;;;;;;;;5050861;28;20431;-80
2023/09/29 01:05:44;;;;;;;4.00;3.60;;;;;;;;;;5050920;28;20484;-80
2023/09/29 01:08:12;;;;;;;3.95;3.55;;;;;;;;;;5051045;28;20377;-80
2023/09/29 01:10:39;;;;;;;4.00;3.60;;;;;;;;;;5051197;28;20385;-80
2023/09/29 01:13:05;;;;;;;4.10;3.70;;;;;;;;;;5050813;28;20404;-80
2023/09/29 01:15:34;;;;;;;4.63;3.65;;;;;;;;;;5050979;28;22427;-81
2023/09/29 01:18:00;;;;;;;4.25;3.85;;;;;;;;;;5032997;28;20408;-81
2023/09/29 01:20:30;;;;;;;4.07;3.77;;;;;;;;;;5050818;28;20389;-81
2023/09/29 01:22:56;;;;;;;3.63;3.33;;;;;;;;;;5050914;28;20384;-80
2023/09/29 01:25:22;;;;;;;3.60;3.30;;;;;;;;;;5050928;28;20416;-80
2023/09/29 01:27:49;;;;;;;3.90;3.50;;;;;;;;;;5050978;28;20499;-80
2023/09/29 01:30:18;;;;;;;3.85;3.17;;;;;;;;;;5050800;28;20407;-80
2023/09/29 01:32:50;;;;;;;3.92;3.20;;;;;;;;;;5050594;28;20447;-80
2023/09/29 01:35:16;;;;;;;4.60;3.75;;;;;;;;;;5049874;28;20382;-80
2023/09/29 01:37:43;;;;;;;3.95;3.63;;;;;;;;;;5047674;28;20421;-81
2023/09/29 01:40:09;;;;;;;4.90;3.63;;;;;;;;;;5042598;28;20389;-81
2023/09/29 01:42:36;;;;;;;4.50;3.40;;;;;;;;;;5049240;28;20468;-81
2023/09/29 01:45:04;;;;;;;3.92;3.63;;;;;;;;;;5038682;28;20411;-81
2023/09/29 01:47:30;;;;;;;3.65;3.30;;;;;;;;;;5053934;28;20389;-81
2023/09/29 01:49:56;;;;;;;4.22;3.72;;;;;;;;;;5054207;28;20385;-82
2023/09/29 01:52:22;;;;;;;3.78;3.38;;;;;;;;;;5054704;28;20395;-81
2023/09/29 01:54:57;;;;;;;4.23;3.73;;;;;;;;;;5057376;28;20412;-82
2023/09/29 01:57:23;;;;;;;3.90;3.50;;;;;;;;;;5055148;28;20441;-82
2023/09/29 01:59:49;;;;;;;3.88;3.58;;;;;;;;;;5055328;28;20397;-81
2023/09/29 02:02:15;;;;;;;4.10;3.47;;;;;;;;;;5054846;28;20765;-82
2023/09/29 02:04:41;;;;;;;4.20;3.50;;;;;;;;;;5054707;28;20416;-81
2023/09/29 02:07:09;;;;;;;3.88;3.47;;;;;;;;;;5054981;28;20427;-81
2023/09/29 02:09:35;;;;;;;3.50;3.20;;;;;;;;;;5054287;28;20385;-81
2023/09/29 02:12:03;;;;;;;4.30;3.60;;;;;;;;;;5054484;28;20381;-81
2023/09/29 02:14:30;;;;;;;4.53;3.40;;;;;;;;;;5053907;28;20801;-82
2023/09/29 02:16:56;;;;;;;4.60;3.70;;;;;;;;;;5054041;28;20957;-82
2023/09/29 02:19:22;;;;;;;4.20;3.80;;;;;;;;;;5054143;28;20396;-81
2023/09/29 02:21:48;;;;;;;3.93;3.50;;;;;;;;;;5054119;28;20404;-81
2023/09/29 02:24:14;;;;;;;5.40;3.72;;;;;;;;;;5054257;28;20456;-82
2023/09/29 02:26:41;;;;;;;4.00;3.60;;;;;;;;;;5056309;28;20385;-82
2023/09/29 02:29:10;;;;;;;4.13;3.47;;;;;;;;;;5050818;28;20525;-81
2023/09/29 02:31:39;;;;;;;4.00;3.70;;;;;;;;;;5054289;28;20443;-81
2023/09/29 02:34:06;;;;;;;4.30;3.80;;;;;;;;;;5054356;28;20386;-81
2023/09/29 02:36:34;;;;;;;4.05;3.63;;;;;;;;;;5054189;28;20801;-81
2023/09/29 02:39:03;;;;;;;3.90;3.50;;;;;;;;;;5050282;28;20410;-81
2023/09/29 02:41:30;;;;;;;3.83;3.47;;;;;;;;;;5053398;28;20389;-82
2023/09/29 02:43:56;;;;;;;3.80;3.50;;;;;;;;;;5053188;28;20444;-81
2023/09/29 02:46:22;;;;;;;4.13;3.50;;;;;;;;;;5051904;28;20377;-81
2023/09/29 02:48:48;;;;;;;4.32;3.58;;;;;;;;;;5053413;28;20885;-81
2023/09/29 02:51:18;;;;;;;4.47;4.00;;;;;;;;;;5053572;28;20715;-81
2023/09/29 02:53:44;;;;;;;4.20;3.80;;;;;;;;;;5053707;28;20393;-81
2023/09/29 02:56:11;;;;;;;4.10;3.60;;;;;;;;;;5053441;28;20378;-82
2023/09/29 02:58:38;;;;;;;3.95;3.55;;;;;;;;;;5053389;28;20392;-81
2023/09/29 03:01:07;;;;;;;3.60;3.30;;;;;;;;;;5053674;28;20374;-81
2023/09/29 03:03:33;;;;;;;4.10;3.70;;;;;;;;;;5053134;28;20962;-81
2023/09/29 03:05:59;;;;;;;4.00;3.58;;;;;;;;;;5054106;28;20386;-81
2023/09/29 03:08:25;;;;;;;5.50;3.80;;;;;;;;;;5053405;28;20400;-81
2023/09/29 03:10:51;;;;;;;3.75;3.45;;;;;;;;;;5053349;28;20464;-81
2023/09/29 03:13:17;;;;;;;4.28;3.88;;;;;;;;;;5053127;28;20425;-81
2023/09/29 03:15:43;;;;;;;4.15;3.80;;;;;;;;;;5053529;28;20842;-81
2023/09/29 03:18:10;;;;;;;3.77;3.47;;;;;;;;;;5053439;28;20398;-81
2023/09/29 03:20:36;;;;;;;4.07;3.67;;;;;;;;;;5053417;28;20402;-81
2023/09/29 03:23:04;;;;;;;4.32;3.92;;;;;;;;;;5053361;28;20397;-81
2023/09/29 03:25:30;;;;;;;4.43;3.88;;;;;;;;;;5053070;28;20474;-81
2023/09/29 03:27:56;;;;;;;4.43;3.95;;;;;;;;;;5053142;28;20472;-81
2023/09/29 03:30:22;;;;;;;4.15;3.75;;;;;;;;;;5053532;28;20377;-81
2023/09/29 03:32:48;;;;;;;4.25;3.85;;;;;;;;;;5053095;28;20416;-81
2023/09/29 03:35:14;;;;;;;4.47;4.07;;;;;;;;;;5053331;28;20439;-81
2023/09/29 03:37:42;;;;;;;4.10;3.70;;;;;;;;;;5053325;28;20461;-81
2023/09/29 03:40:13;;;;;;;3.88;3.40;;;;;;;;;;5053135;28;20397;-81
2023/09/29 03:42:42;;;;;;;3.83;3.53;;;;;;;;;;5053323;28;20835;-81
2023/09/29 03:45:09;;;;;;;4.38;3.97;;;;;;;;;;5052607;28;20417;-81
2023/09/29 03:47:35;;;;;;;4.22;3.83;;;;;;;;;;5052424;28;20389;-81
2023/09/29 03:50:01;;;;;;;3.90;3.50;;;;;;;;;;5049437;28;20464;-81
2023/09/29 03:52:29;;;;;;;3.70;3.40;;;;;;;;;;5051267;28;20787;-81
2023/09/29 03:54:55;;;;;;;4.00;3.60;;;;;;;;;;5054121;28;20858;-81
2023/09/29 03:57:21;;;;;;;4.37;3.97;;;;;;;;;;5061857;28;20472;-81
2023/09/29 03:59:47;;;;;;;4.43;4.03;;;;;;;;;;5053663;28;20381;-82
2023/09/29 04:02:13;;;;;;;4.30;3.90;;;;;;;;;;5054630;28;20841;-82
2023/09/29 04:04:40;;;;;;;4.22;3.80;;;;;;;;;;5054011;28;20413;-82
2023/09/29 04:07:06;;;;;;;4.40;3.50;;;;;;;;;;5054183;28;20800;-82
2023/09/29 04:09:32;;;;;;;5.47;4.13;;;;;;;;;;5053471;28;20432;-82
2023/09/29 04:11:58;;;;;;;3.85;3.55;;;;;;;;;;5053923;28;20389;-82
2023/09/29 04:14:24;;;;;;;4.27;3.87;;;;;;;;;;5054518;28;20377;-82
2023/09/29 04:16:50;;;;;;;4.10;3.70;;;;;;;;;;5053030;28;20712;-82
2023/09/29 04:19:16;;;;;;;3.92;3.53;;;;;;;;;;5054390;28;20459;-82
2023/09/29 04:21:42;;;;;;;4.55;4.07;;;;;;;;;;5037368;28;20397;-82
2023/09/29 04:24:08;;;;;;;4.13;3.72;;;;;;;;;;5053265;28;20413;-81
2023/09/29 04:26:35;;;;;;;4.20;3.80;;;;;;;;;;5053097;28;20399;-81
2023/09/29 04:29:01;;;;;;;3.97;3.60;;;;;;;;;;5053170;28;20885;-83
2023/09/29 04:31:27;;;;;;;4.70;4.20;;;;;;;;;;5054307;28;20399;-82
2023/09/29 04:33:53;;;;;;;4.28;3.88;;;;;;;;;;5052905;28;20440;-82
2023/09/29 04:36:19;;;;;;;4.55;3.85;;;;;;;;;;5052716;28;20374;-82
2023/09/29 04:38:45;;;;;;;5.20;3.70;;;;;;;;;;5052050;28;20376;-82
2023/09/29 04:41:12;;;;;;;4.50;4.10;;;;;;;;;;5052057;28;20388;-81
2023/09/29 04:43:38;;;;;;;4.20;3.80;;;;;;;;;;5052502;28;20420;-82
2023/09/29 04:46:04;;;;;;;5.45;4.32;;;;;;;;;;5055403;28;20382;-82
2023/09/29 04:48:30;;;;;;;3.85;3.55;;;;;;;;;;5053828;28;20731;-82
2023/09/29 04:50:56;;;;;;;4.40;3.80;;;;;;;;;;5054258;28;20381;-81
2023/09/29 04:53:22;;;;;;;4.15;3.75;;;;;;;;;;5052612;28;20930;-82
2023/09/29 04:55:48;;;;;;;4.65;4.18;;;;;;;;;;5052048;28;20392;-81
2023/09/29 04:58:15;;;;;;;4.47;4.07;;;;;;;;;;5051116;28;20412;-81
2023/09/29 05:00:42;;;;;;;4.07;3.78;;;;;;;;;;5054569;28;20762;-81
2023/09/29 05:03:10;;;;;;;4.60;3.85;;;;;;;;;;5046708;28;20405;-81
2023/09/29 05:05:36;;;;;;;5.40;3.90;;;;;;;;;;5051964;28;20428;-81
2023/09/29 05:08:02;;;;;;;4.15;3.75;;;;;;;;;;5053324;28;20385;-81
2023/09/29 05:10:28;;;;;;;4.43;4.03;;;;;;;;;;5039451;28;20378;-81
2023/09/29 05:12:54;;;;;;;4.53;4.13;;;;;;;;;;5053466;28;20480;-81
2023/09/29 05:15:20;;;;;;;4.40;4.00;;;;;;;;;;5030027;28;20465;-81
2023/09/29 05:17:46;;;;;;;4.70;4.10;;;;;;;;;;5048417;28;20376;-81
2023/09/29 05:20:12;;;;;;;4.80;4.13;;;;;;;;;;5052869;28;20472;-82
2023/09/29 05:22:38;;;;;;;4.03;3.67;;;;;;;;;;5053917;28;20753;-81
2023/09/29 05:25:04;;;;;;;4.57;4.18;;;;;;;;;;5050241;28;20414;-82
2023/09/29 05:27:32;;;;;;;4.53;4.13;;;;;;;;;;5050885;28;20731;-82
2023/09/29 05:29:58;;;;;;;4.32;3.90;;;;;;;;;;5053212;28;20397;-82
2023/09/29 05:32:24;;;;;;;4.77;4.30;;;;;;;;;;5047334;28;20381;-82
2023/09/29 05:34:51;;;;;;;5.38;4.20;;;;;;;;;;5051898;28;20378;-82
2023/09/29 05:37:17;;;;;;;5.00;4.38;;;;;;;;;;5046662;28;20380;-81
2023/09/29 05:39:43;;;;;;;5.03;4.13;;;;;;;;;;5047160;28;20411;-81
2023/09/29 05:42:09;;;;;;;5.10;4.40;;;;;;;;;;5051825;28;20382;-81
2023/09/29 05:44:35;;;;;;;4.93;3.97;;;;;;;;;;5052241;28;20439;-82
2023/09/29 05:47:02;;;;;;;4.60;4.10;;;;;;;;;;5054961;28;20923;-82
2023/09/29 05:49:28;;;;;;;4.97;4.47;;;;;;;;;;5056351;28;20382;-81
2023/09/29 05:51:54;;;;;;;4.85;4.35;;;;;;;;;;5053408;28;20465;-81
2023/09/29 05:54:20;;;;;;;5.85;3.95;;;;;;;;;;5052573;28;20480;-82
2023/09/29 05:56:46;;;;;;;4.60;4.20;;;;;;;;;;5053331;28;20453;-82
2023/09/29 05:59:12;;;;;;;5.13;4.23;;;;;;;;;;5053371;28;20377;-82
2023/09/29 06:01:38;;;;;;;4.75;4.35;;;;;;;;;;5053161;28;20893;-82
2023/09/29 06:04:04;;;;;;;4.88;4.47;;;;;;;;;;5052745;28;20512;-82
2023/09/29 06:06:30;;;;;;;6.03;4.18;;;;;;;;;;5052708;28;20408;-82
2023/09/29 06:08:57;;;;;;;5.03;4.53;;;;;;;;;;5046665;28;20454;-82
2023/09/29 06:11:23;;;;;;;5.90;4.57;;;;;;;;;;5047288;28;20889;-82
2023/09/29 06:13:49;;;;;;;4.93;4.40;;;;;;;;;;5053508;28;20377;-82
2023/09/29 06:16:15;;;;;;;5.78;4.50;;;;;;;;;;5052875;28;20689;-82
2023/09/29 06:18:41;;;;;;;6.47;4.60;;;;;;;;;;5053558;28;20382;-82
2023/09/29 06:21:07;;;;;;;4.75;4.30;;;;;;;;;;5054349;28;20385;-82
2023/09/29 06:23:33;;;;;;;4.72;3.88;;;;;;;;;;5053852;28;20408;-82
2023/09/29 06:26:00;;;;;;;5.70;4.30;;;;;;;;;;5067446;22;20385;-81
2023/09/29 06:28:26;;;;;;;5.13;4.55;;;;;;;;;;5069325;28;20395;-81
2023/09/29 06:30:52;;;;;;;5.25;4.75;;;;;;;;;;5068576;28;20857;-81
2023/09/29 06:33:19;;;;;;;5.20;4.70;;;;;;;;;;5079261;28;20375;-81
2023/09/29 06:35:45;;;;;;;5.20;4.70;;;;;;;;;;5079219;28;20407;-82
2023/09/29 06:38:11;;;;;;;6.10;5.05;;;;;;;;;;5073563;28;20488;-81
2023/09/29 06:40:37;;;;;;;5.40;5.00;;;;;;;;;;5077822;28;20387;-81
2023/09/29 06:43:03;;;;;;;8.52;4.97;;;;;;;;;;5079020;28;20445;-81
2023/09/29 06:45:31;;;;;;;6.93;5.18;;;;;;;;;;5061259;28;20411;-81
2023/09/29 06:47:57;;;;;;;5.57;5.00;;;;;;;;;;5074436;28;20387;-81
2023/09/29 06:50:23;;;;;;;5.82;5.25;;;;;;;;;;5076904;28;20383;-81
2023/09/29 06:52:49;;;;;;;5.93;4.97;;;;;;;;;;5064058;28;20457;-81
2023/09/29 06:55:15;;;;;;;5.97;5.43;;;;;;;;;;5068844;28;20390;-81
2023/09/29 06:57:41;;;;;;;5.60;5.10;;;;;;;;;;5065618;28;20431;-81
2023/09/29 07:00:09;;;;;;;6.25;5.65;;;;;;;;;;5065876;28;20401;-81
2023/09/29 07:02:38;;;;;;;7.32;6.55;;;;;;;;;;5067702;28;20377;-81
2023/09/29 07:05:05;;;;;;;7.93;7.13;;;;;;;;;;5065986;28;20471;-82
2023/09/29 07:07:31;;;;;;;8.20;7.40;;;;;;;;;;5070989;28;20380;-81
2023/09/29 07:09:57;;;;;;;8.68;7.22;;;;;;;;;;5067879;28;20389;-82
2023/09/29 07:12:24;;;;;;;9.82;8.63;;;;;;;;;;5072310;28;20802;-81
2023/09/29 07:14:51;;;;;;;10.55;8.48;;;;;;;;;;5067378;28;20385;-82
2023/09/29 07:17:20;;;;;;;10.30;8.90;;;;;;;;;;5070706;28;20388;-81
2023/09/29 07:19:46;;;;;;;10.60;8.73;;;;;;;;;;5068757;28;20386;-81
2023/09/29 07:22:12;;;;;;;12.95;9.30;;;;;;;;;;5069879;28;20416;-82
2023/09/29 07:24:41;;;;;;;11.52;10.05;;;;;;;;;;5071233;28;20408;-81
2023/09/29 07:27:11;;;;;;;12.00;9.77;;;;;;;;;;5067771;28;20391;-81
2023/09/29 07:29:36;;;;;;;14.70;11.00;;;;;;;;;;5062682;28;20397;-82
2023/09/29 07:32:03;;;;;;;16.83;11.63;;;;;;;;;;5060283;28;20402;-81
2023/09/29 07:34:30;;;;;;;14.35;10.90;;;;;;;;;;5063458;28;20393;-81
2023/09/29 07:36:57;;;;;;;14.82;10.73;;;;;;;;;;5063059;28;20782;-81
2023/09/29 07:39:23;;;;;;;13.30;10.60;;;;;;;;;;5064738;28;20403;-81
2023/09/29 07:41:50;;;;;;;14.77;11.90;;;;;;;;;;5078248;28;20392;-82
2023/09/29 07:44:16;;;;;;;12.23;10.88;;;;;;;;;;5065481;28;20755;-82
2023/09/29 07:46:52;;;;;;;12.02;10.30;;;;;;;;;;5075979;28;20398;-82
2023/09/29 07:49:19;;;;;;;12.77;10.95;;;;;;;;;;5071692;28;20435;-81
2023/09/29 07:51:45;;;;;;;12.70;11.00;;;;;;;;;;5069406;28;20396;-81
2023/09/29 07:54:11;;;;;;;14.53;10.40;;;;;;;;;;5054552;28;20432;-82
2023/09/29 07:56:37;;;;;;;12.35;11.10;;;;;;;;;;5076079;28;20382;-82
2023/09/29 07:59:03;;;;;;;12.02;10.48;;;;;;;;;;5075090;28;20406;-82
2023/09/29 08:01:29;;;;;;;11.73;9.38;;;;;;;;;;5074736;28;20376;-82
2023/09/29 08:03:57;;;;;;;11.13;9.55;;;;;;;;;;5076239;28;20477;-81
2023/09/29 08:06:24;;;;;;;11.35;9.90;;;;;;;;;;5075127;28;20388;-82
2023/09/29 08:08:50;;;;;;;10.25;9.25;;;;;;;;;;5076224;28;20376;-82
2023/09/29 08:11:16;;;;;;;9.80;8.90;;;;;;;;;;5067073;28;20953;-82
2023/09/29 08:13:42;;;;;;;8.90;8.00;;;;;;;;;;5072858;28;20447;-82
2023/09/29 08:16:08;;;;;;;7.95;7.15;;;;;;;;;;5077178;28;20415;-82
2023/09/29 08:18:34;;;;;;;8.10;7.32;;;;;;;;;;5063998;28;20442;-82
2023/09/29 08:21:03;;;;;;;7.50;6.80;;;;;;;;;;5077644;28;21009;-82
2023/09/29 08:23:30;;;;;;;9.90;7.05;;;;;;;;;;5078021;28;20703;-82
2023/09/29 08:25:57;;;;;;;8.43;7.55;;;;;;;;;;5069908;28;20417;-82
2023/09/29 08:28:23;;;;;;;8.30;7.45;;;;;;;;;;5077606;28;20466;-82
2023/09/29 08:30:49;;;;;;;13.70;9.25;;;;;;;;;;5078181;28;20415;-82
2023/09/29 08:33:14;;;;;;;11.13;9.00;;;;;;;;;;5077814;28;20829;-82
2023/09/29 08:35:40;;;;;;;11.13;8.18;;;;;;;;;;5078456;28;20383;-82
2023/09/29 08:38:12;;;;;;;9.68;7.65;;;;;;;;;;5077829;28;20459;-82
2023/09/29 08:40:39;;;;;;;7.38;6.68;;;;;;;;;;5071237;28;20379;-82
2023/09/29 08:43:06;;;;;;;7.05;6.30;;;;;;;;;;5076388;28;20866;-82
2023/09/29 08:45:33;;;;;;;5.70;5.18;;;;;;;;;;5077041;28;20512;-82
2023/09/29 08:48:00;;;;;;;7.97;5.90;;;;;;;;;;5078146;28;20399;-82
2023/09/29 08:50:26;;;;;;;5.60;5.10;;;;;;;;;;5081311;28;20387;-82
2023/09/29 08:52:56;;;;;;;6.32;4.97;;;;;;;;;;5065586;28;20462;-82
2023/09/29 08:55:23;;;;;;;5.22;4.60;;;;;;;;;;5058584;28;20386;-82
2023/09/29 08:57:49;;;;;;;4.90;4.50;;;;;;;;;;5058891;28;20373;-82
2023/09/29 09:00:16;;;;;;;5.20;4.70;;;;;;;;;;5058756;28;20915;-82
2023/09/29 09:02:45;;;;;;;7.10;5.00;;;;;;;;;;5058147;28;20374;-82
2023/09/29 09:05:12;;;;;;;5.78;4.60;;;;;;;;;;5057369;28;20515;-82
2023/09/29 09:07:41;;;;;;;4.35;3.95;;;;;;;;;;5058055;28;20396;-82
2023/09/29 09:10:07;;;;;;;4.55;4.13;;;;;;;;;;5059102;28;20462;-82
2023/09/29 09:12:34;;;;;;;6.35;4.88;;;;;;;;;;5057883;28;20381;-82
2023/09/29 09:15:01;;;;;;;5.75;4.90;;;;;;;;;;5058408;28;20441;-82
2023/09/29 09:17:27;;;;;;;6.78;5.65;;;;;;;;;;5057800;28;20846;-82
2023/09/29 09:19:54;;;;;;;5.78;4.75;;;;;;;;;;5058016;28;20476;-82
2023/09/29 09:22:25;;;;;;;5.22;4.10;;;;;;;;;;5056777;28;20501;-81
2023/09/29 09:24:57;;;;;;;4.55;4.07;;;;;;;;;;5056686;28;20413;-82
2023/09/29 09:27:23;;;;;;;5.68;4.07;;;;;;;;;;5056331;28;20401;-82
2023/09/29 09:29:49;;;;;;;5.03;4.50;;;;;;;;;;5057635;28;20394;-81
2023/09/29 09:32:15;;;;;;;5.15;4.55;;;;;;;;;;5057094;28;20392;-82
2023/09/29 09:34:42;;;;;;;8.53;6.20;;;;;;;;;;5057184;28;20401;-82
2023/09/29 09:37:09;;;;;;;4.93;4.45;;;;;;;;;;5057489;28;20393;-82
2023/09/29 09:39:35;;;;;;;6.20;5.60;;;;;;;;;;5038921;28;20381;-82
2023/09/29 09:42:05;;;;;;;6.32;5.72;;;;;;;;;;5056699;28;20464;-82
2023/09/29 09:44:32;;;;;;;6.63;5.78;;;;;;;;;;5056258;28;20413;-82
2023/09/29 09:47:03;;;;;;;4.75;4.30;;;;;;;;;;5055570;28;20389;-82
2023/09/29 09:49:38;;;;;;;4.80;4.40;;;;;;;;;;5056341;28;20378;-82
2023/09/29 09:52:15;;;;;;;4.60;4.17;;;;;;;;;;5056474;28;20456;-82
2023/09/29 09:54:52;;;;;;;5.30;4.80;;;;;;;;;;5058550;28;20405;-82
2023/09/29 09:57:38;;;;;;;5.50;5.00;;;;;;;;;;5057888;28;20417;-81
2023/09/29 10:00:10;;;;;;;6.38;4.60;;;;;;;;;;5056398;28;20411;-82
2023/09/29 10:02:41;;;;;;;4.63;4.22;;;;;;;;;;5064646;28;20380;-81
2023/09/29 10:05:22;;;;;;;4.45;4.05;;;;;;;;;;5060604;28;20476;-82
2023/09/29 10:07:53;;;;;;;7.00;3.75;;;;;;;;;;5057849;28;20389;-81
2023/09/29 10:10:23;;;;;;;4.57;4.20;;;;;;;;;;5058559;28;20812;-79
2023/09/29 10:12:54;;;;;;;4.68;4.28;;;;;;;;;;5038637;28;20405;-80
2023/09/29 10:15:20;;;;;;;4.65;4.25;;;;;;;;;;5057076;28;20770;-80
2023/09/29 10:17:49;;;;;;;4.18;3.72;;;;;;;;;;5058030;28;20389;-80
2023/09/29 10:20:19;;;;;;;5.32;4.05;;;;;;;;;;5058030;28;20781;-80
2023/09/29 10:22:54;;;;;;;4.25;3.80;;;;;;;;;;5056811;28;20377;-80
2023/09/29 10:25:21;;;;;;;3.75;3.45;;;;;;;;;;5056843;28;20415;-80
2023/09/29 10:27:50;;;;;;;4.32;3.78;;;;;;;;;;5057246;28;20385;-80
2023/09/29 10:30:16;;;;;;;4.97;3.92;;;;;;;;;;5064308;28;20922;-80
2023/09/29 10:32:43;;;;;;;4.70;3.53;;;;;;;;;;5058336;28;20393;-80
2023/09/29 10:35:18;;;;;;;3.78;3.47;;;;;;;;;;5055887;28;20840;-81
2023/09/29 10:37:54;;;;;;;3.90;3.50;;;;;;;;;;5057887;28;20488;-80
2023/09/29 10:40:32;;;;;;;4.30;3.87;;;;;;;;;;5057004;28;20881;-80
2023/09/29 10:43:01;;;;;;;3.80;3.50;;;;;;;;;;5057645;28;20877;-80
2023/09/29 10:45:37;;;;;;;4.35;3.40;;;;;;;;;;5056545;28;20467;-81
2023/09/29 10:48:06;;;;;;;3.60;3.30;;;;;;;;;;5058756;28;20391;-81
2023/09/29 10:50:38;;;;;;;4.10;3.40;;;;;;;;;;5057799;28;20381;-81
2023/09/29 10:53:04;;;;;;;4.05;3.65;;;;;;;;;;5058465;28;20385;-81
2023/09/29 10:55:30;;;;;;;3.78;3.30;;;;;;;;;;5058200;28;20420;-81
2023/09/29 10:58:05;;;;;;;3.63;3.33;;;;;;;;;;5058888;28;20397;-81
2023/09/29 11:00:31;;;;;;;3.88;3.58;;;;;;;;;;5058758;28;20378;-81
2023/09/29 11:02:57;;;;;;;3.58;3.15;;;;;;;;;;5057846;28;20420;-81
2023/09/29 11:05:23;;;;;;;3.58;3.28;;;;;;;;;;5057956;28;20496;-81
2023/09/29 11:07:50;;;;;;;4.60;3.40;;;;;;;;;;5058228;28;20439;-81
2023/09/29 11:10:17;;;;;;;3.50;3.20;;;;;;;;;;5057611;28;20401;-79
2023/09/29 11:12:45;;;;;;;3.92;3.55;;;;;;;;;;5058183;28;20467;-79
2023/09/29 11:15:12;;;;;;;4.30;3.28;;;;;;;;;;5056915;28;20445;-79
2023/09/29 11:17:44;;;;;;;4.97;3.40;;;;;;;;;;5057620;28;20381;-79
2023/09/29 11:20:16;;;;;;;5.78;3.40;;;;;;;;;;5057259;28;20421;-79
2023/09/29 11:22:42;;;;;;;4.30;2.90;;;;;;;;;;5056328;28;20386;-81
2023/09/29 11:25:29;;;;;;;3.75;3.13;;;;;;;;;;5054867;28;20412;-78
2023/09/29 11:27:55;;;;;;;2.90;2.60;;;;;;;;;;5037713;28;20890;-78
2023/09/29 11:30:24;;;;;;;4.65;2.78;;;;;;;;;;5056225;28;20423;-78
2023/09/29 11:32:51;;;;;;;3.42;2.53;;;;;;;;;;5055823;28;20393;-78
2023/09/29 11:35:18;;;;;;;3.20;2.90;;;;;;;;;;5056935;28;20411;-78
2023/09/29 11:37:45;;;;;;;4.10;2.60;;;;;;;;;;5056322;28;20435;-81
2023/09/29 11:40:12;;;;;;;3.83;2.72;;;;;;;;;;5056825;28;20390;-82
2023/09/29 11:42:45;;;;;;;3.00;2.50;;;;;;;;;;5056030;28;20394;-79
2023/09/29 11:45:14;;;;;;;3.78;2.95;;;;;;;;;;5055901;28;20755;-79
2023/09/29 11:47:44;;;;;;;3.53;2.63;;;;;;;;;;5055707;28;20432;-79
2023/09/29 11:50:10;;;;;;;3.35;2.67;;;;;;;;;;5055693;28;20400;-80
2023/09/29 11:52:39;;;;;;;3.10;2.80;;;;;;;;;;5055831;28;20382;-80
2023/09/29 11:55:08;;;;;;;5.22;2.70;;;;;;;;;;5055504;28;20385;-79
2023/09/29 11:57:34;;;;;;;4.00;2.75;;;;;;;;;;5055038;28;20423;-80
2023/09/29 12:00:00;;;;;;;3.30;2.60;;;;;;;;;;5054923;28;20523;-82
2023/09/29 12:02:27;;;;;;;5.10;3.08;;;;;;;;;;5055436;28;20849;-80
2023/09/29 12:04:53;;;;;;;4.25;2.80;;;;;;;;;;5056388;28;20488;-80
2023/09/29 12:07:19;;;;;;;2.63;2.30;;;;;;;;;;5060316;28;20477;-80
2023/09/29 12:09:45;;;;;;;2.70;2.27;;;;;;;;;;5055808;28;20385;-80
2023/09/29 12:12:12;;;;;;;3.87;2.80;;;;;;;;;;5056951;28;20392;-80
2023/09/29 12:14:38;;;;;;;2.72;2.38;;;;;;;;;;5056000;28;20389;-80
2023/09/29 12:17:04;;;;;;;4.25;2.60;;;;;;;;;;5055250;28;20378;-80
2023/09/29 12:19:30;;;;;;;3.20;2.80;;;;;;;;;;5056031;28;20381;-80
2023/09/29 12:21:57;;;;;;;2.80;2.60;;;;;;;;;;5037922;28;20459;-80
2023/09/29 12:24:23;;;;;;;2.90;2.60;;;;;;;;;;5056169;28;20859;-80
2023/09/29 12:26:49;;;;;;;3.55;2.60;;;;;;;;;;5055832;28;20405;-80
2023/09/29 12:29:15;;;;;;;3.47;2.60;;;;;;;;;;5055305;28;20388;-80
2023/09/29 12:31:41;;;;;;;3.40;2.85;;;;;;;;;;5055286;28;20481;-80
2023/09/29 12:34:07;;;;;;;5.07;2.67;;;;;;;;;;5054833;28;20409;-80
2023/09/29 12:36:33;;;;;;;3.88;2.72;;;;;;;;;;5054291;28;20732;-79
2023/09/29 12:39:00;;;;;;;3.08;2.55;;;;;;;;;;5051265;28;20384;-80
2023/09/29 12:41:29;;;;;;;4.77;2.87;;;;;;;;;;5061930;28;20782;-80
2023/09/29 12:43:55;;;;;;;4.37;2.40;;;;;;;;;;5067467;28;20759;-80
2023/09/29 12:46:21;;;;;;;2.73;2.53;;;;;;;;;;5069682;28;20411;-80
2023/09/29 12:48:47;;;;;;;3.28;2.60;;;;;;;;;;5069557;28;20382;-80
2023/09/29 12:51:18;;;;;;;3.40;2.55;;;;;;;;;;5067195;28;20397;-79
2023/09/29 12:53:45;;;;;;;3.45;2.47;;;;;;;;;;5055143;28;20396;-79
2023/09/29 12:56:15;;;;;;;2.80;2.35;;;;;;;;;;5055068;28;20407;-79
2023/09/29 12:58:41;;;;;;;3.75;2.45;;;;;;;;;;5039650;28;20398;-81
2023/09/29 13:01:07;;;;;;;3.15;2.40;;;;;;;;;;5064909;28;20477;-79
2023/09/29 13:03:33;;;;;;;2.75;2.45;;;;;;;;;;5063691;28;20447;-81
2023/09/29 13:06:06;;;;;;;4.00;2.95;;;;;;;;;;5067291;28;20427;-81
2023/09/29 13:08:35;;;;;;;3.38;3.08;;;;;;;;;;5054886;28;20393;-81
2023/09/29 13:11:03;;;;;;;3.15;2.47;;;;;;;;;;5061066;28;20392;-81
2023/09/29 13:13:29;;;;;;;2.80;2.60;;;;;;;;;;5071908;28;20776;-79
2023/09/29 13:15:55;;;;;;;3.40;2.60;;;;;;;;;;5060939;28;20420;-79
2023/09/29 13:18:22;;;;;;;3.40;2.60;;;;;;;;;;5072793;28;20383;-82
2023/09/29 13:20:49;;;;;;;3.05;2.60;;;;;;;;;;5069317;28;21620;-79
2023/09/29 13:23:15;;;;;;;2.63;2.42;;;;;;;;;;5073606;28;20441;-79
2023/09/29 13:25:42;;;;;;;4.25;2.15;;;;;;;;;;5071373;28;20946;-81
2023/09/29 13:28:09;;;;;;;3.00;2.65;;;;;;;;;;5073837;28;20498;-81
2023/09/29 13:30:35;;;;;;;3.63;2.70;;;;;;;;;;5071718;28;20386;-81
2023/09/29 13:33:02;;;;;;;2.85;2.50;;;;;;;;;;5075151;28;20372;-81
2023/09/29 13:35:28;;;;;;;3.47;2.53;;;;;;;;;;5076063;28;20391;-82
2023/09/29 13:37:54;;;;;;;2.80;2.38;;;;;;;;;;5074665;28;20379;-82
2023/09/29 13:40:20;;;;;;;2.85;2.45;;;;;;;;;;5067812;28;20391;-82
2023/09/29 13:42:47;;;;;;;4.47;2.60;;;;;;;;;;5074440;28;20395;-81
2023/09/29 13:45:13;;;;;;;3.45;2.42;;;;;;;;;;5074799;28;20916;-80
2023/09/29 13:47:39;;;;;;;4.88;2.70;;;;;;;;;;5076023;28;20379;-82
2023/09/29 13:50:09;;;;;;;5.25;2.72;;;;;;;;;;5072120;28;20375;-82
2023/09/29 13:52:36;;;;;;;2.50;2.30;;;;;;;;;;5058584;28;21081;-81
2023/09/29 13:55:02;;;;;;;5.30;2.30;;;;;;;;;;5062086;28;20396;-82
2023/09/29 13:57:28;;;;;;;4.57;2.47;;;;;;;;;;5078984;28;20483;-81
2023/09/29 13:59:54;;;;;;;3.70;2.50;;;;;;;;;;5069278;28;20385;-81
2023/09/29 14:02:20;;;;;;;3.28;2.45;;;;;;;;;;5064777;28;20419;-80
2023/09/29 14:04:46;;;;;;;3.33;2.50;;;;;;;;;;5061782;28;20881;-83
2023/09/29 14:07:12;;;;;;;3.58;2.72;;;;;;;;;;5086697;28;20399;-83
2023/09/29 14:09:39;;;;;;;4.65;2.63;;;;;;;;;;5085768;28;20383;-83
2023/09/29 14:12:05;;;;;;;3.97;2.60;;;;;;;;;;5085650;28;20394;-83
2023/09/29 14:14:34;;;;;;;2.90;2.42;;;;;;;;;;5071601;28;20395;-83
2023/09/29 14:17:00;;;;;;;4.03;2.60;;;;;;;;;;5066452;28;20439;-82
2023/09/29 14:19:26;;;;;;;2.53;2.20;;;;;;;;;;5069381;28;20453;-83
2023/09/29 14:21:54;;;;;;;3.17;2.38;;;;;;;;;;5083162;28;20402;-82
2023/09/29 14:24:20;;;;;;;3.60;2.53;;;;;;;;;;5069985;28;20409;-83
2023/09/29 14:26:47;;;;;;;2.60;2.10;;;;;;;;;;5065560;28;20397;-82
2023/09/29 14:29:17;;;;;;;3.53;2.60;;;;;;;;;;5064929;28;20476;-82
2023/09/29 14:31:47;;;;;;;2.97;2.27;;;;;;;;;;5075787;28;20943;-83
2023/09/29 14:34:15;;;;;;;4.93;2.53;;;;;;;;;;5067739;28;20424;-83
2023/09/29 14:36:41;;;;;;;3.92;2.75;;;;;;;;;;5071546;28;20462;-82
2023/09/29 14:39:07;;;;;;;2.80;2.40;;;;;;;;;;5068249;28;20391;-82
2023/09/29 14:41:34;;;;;;;4.77;2.90;;;;;;;;;;5084751;28;20425;-82